sensor_id;sensor_type;location;lat;lon;timestamp;P1;durP1;ratioP1;P2;durP2;ratioP2
52274;SDS011;38228;50.940;4.024;2023-06-10T00:00:34;9.88;;;6.70;;
52274;SDS011;38228;50.940;4.024;2023-06-10T00:03:00;9.65;;;6.15;;
52274;SDS011;38228;50.940;4.024;2023-06-10T00:05:26;8.07;;;6.50;;
52274;SDS011;38228;50.940;4.024;2023-06-10T00:07:55;8.85;;;6.20;;
52274;SDS011;38228;50.940;4.024;2023-06-10T00:10:21;7.07;;;6.28;;
52274;SDS011;38228;50.940;4.024;2023-06-10T00:12:47;8.07;;;6.03;;
52274;SDS011;38228;50.940;4.024;2023-06-10T00:15:13;8.27;;;6.35;;
52274;SDS011;38228;50.940;4.024;2023-06-10T00:17:39;8.70;;;6.78;;
52274;SDS011;38228;50.940;4.024;2023-06-10T00:20:09;7.13;;;6.22;;
52274;SDS011;38228;50.940;4.024;2023-06-10T00:22:38;11.15;;;6.68;;
52274;SDS011;38228;50.940;4.024;2023-06-10T00:25:05;7.28;;;6.22;;
52274;SDS011;38228;50.940;4.024;2023-06-10T00:27:31;9.90;;;6.65;;
52274;SDS011;38228;50.940;4.024;2023-06-10T00:30:01;9.15;;;6.35;;
52274;SDS011;38228;50.940;4.024;2023-06-10T00:32:32;10.35;;;6.80;;
52274;SDS011;38228;50.940;4.024;2023-06-10T00:35:01;13.32;;;6.40;;
52274;SDS011;38228;50.940;4.024;2023-06-10T00:37:27;7.80;;;6.28;;
52274;SDS011;38228;50.940;4.024;2023-06-10T00:39:54;8.95;;;6.50;;
52274;SDS011;38228;50.940;4.024;2023-06-10T00:42:20;7.80;;;6.38;;
52274;SDS011;38228;50.940;4.024;2023-06-10T00:44:47;10.27;;;6.82;;
52274;SDS011;38228;50.940;4.024;2023-06-10T00:47:13;7.57;;;6.63;;
52274;SDS011;38228;50.940;4.024;2023-06-10T00:49:39;9.40;;;6.63;;
52274;SDS011;38228;50.940;4.024;2023-06-10T00:52:05;13.02;;;7.00;;
52274;SDS011;38228;50.940;4.024;2023-06-10T00:54:32;10.13;;;6.60;;
52274;SDS011;38228;50.940;4.024;2023-06-10T00:57:00;9.05;;;6.43;;
52274;SDS011;38228;50.940;4.024;2023-06-10T00:59:28;8.85;;;6.65;;
52274;SDS011;38228;50.940;4.024;2023-06-10T01:01:54;9.95;;;7.35;;
52274;SDS011;38228;50.940;4.024;2023-06-10T01:04:22;8.13;;;6.80;;
52274;SDS011;38228;50.940;4.024;2023-06-10T01:12:41;8.00;;;6.75;;
52274;SDS011;38228;50.940;4.024;2023-06-10T01:15:13;10.57;;;6.82;;
52274;SDS011;38228;50.940;4.024;2023-06-10T01:17:59;10.05;;;6.68;;
52274;SDS011;38228;50.940;4.024;2023-06-10T01:20:27;9.57;;;6.90;;
52274;SDS011;38228;50.940;4.024;2023-06-10T01:22:54;10.15;;;6.60;;
52274;SDS011;38228;50.940;4.024;2023-06-10T01:25:21;8.68;;;7.25;;
52274;SDS011;38228;50.940;4.024;2023-06-10T01:27:54;8.95;;;7.07;;
52274;SDS011;38228;50.940;4.024;2023-06-10T01:30:31;9.00;;;7.05;;
52274;SDS011;38228;50.940;4.024;2023-06-10T01:33:05;11.30;;;7.20;;
52274;SDS011;38228;50.940;4.024;2023-06-10T01:35:34;11.45;;;7.50;;
52274;SDS011;38228;50.940;4.024;2023-06-10T01:38:03;8.45;;;7.00;;
52274;SDS011;38228;50.940;4.024;2023-06-10T01:40:29;11.68;;;7.03;;
52274;SDS011;38228;50.940;4.024;2023-06-10T01:42:57;11.55;;;7.47;;
52274;SDS011;38228;50.940;4.024;2023-06-10T01:45:22;9.77;;;7.30;;
52274;SDS011;38228;50.940;4.024;2023-06-10T01:47:48;10.95;;;6.72;;
52274;SDS011;38228;50.940;4.024;2023-06-10T01:50:14;11.23;;;7.07;;
52274;SDS011;38228;50.940;4.024;2023-06-10T01:52:41;7.82;;;6.72;;
52274;SDS011;38228;50.940;4.024;2023-06-10T01:55:07;7.93;;;6.85;;
52274;SDS011;38228;50.940;4.024;2023-06-10T01:57:33;10.40;;;6.72;;
52274;SDS011;38228;50.940;4.024;2023-06-10T01:59:58;12.82;;;7.30;;
52274;SDS011;38228;50.940;4.024;2023-06-10T02:02:24;10.45;;;6.90;;
52274;SDS011;38228;50.940;4.024;2023-06-10T02:04:50;8.73;;;7.28;;
52274;SDS011;38228;50.940;4.024;2023-06-10T02:07:16;11.30;;;7.07;;
52274;SDS011;38228;50.940;4.024;2023-06-10T02:09:41;9.40;;;6.82;;
52274;SDS011;38228;50.940;4.024;2023-06-10T02:12:07;9.02;;;6.90;;
52274;SDS011;38228;50.940;4.024;2023-06-10T02:14:33;8.85;;;7.45;;
52274;SDS011;38228;50.940;4.024;2023-06-10T02:16:59;7.20;;;6.50;;
52274;SDS011;38228;50.940;4.024;2023-06-10T02:19:25;12.07;;;7.55;;
52274;SDS011;38228;50.940;4.024;2023-06-10T02:21:51;9.00;;;6.93;;
52274;SDS011;38228;50.940;4.024;2023-06-10T02:24:17;12.63;;;7.55;;
52274;SDS011;38228;50.940;4.024;2023-06-10T02:26:43;11.10;;;7.03;;
52274;SDS011;38228;50.940;4.024;2023-06-10T02:29:09;8.75;;;6.90;;
52274;SDS011;38228;50.940;4.024;2023-06-10T02:31:34;11.07;;;7.85;;
52274;SDS011;38228;50.940;4.024;2023-06-10T02:34:00;9.23;;;6.95;;
52274;SDS011;38228;50.940;4.024;2023-06-10T02:36:28;15.20;;;7.93;;
52274;SDS011;38228;50.940;4.024;2023-06-10T02:38:53;10.88;;;7.25;;
52274;SDS011;38228;50.940;4.024;2023-06-10T02:41:19;10.15;;;8.05;;
52274;SDS011;38228;50.940;4.024;2023-06-10T02:43:46;11.05;;;7.75;;
52274;SDS011;38228;50.940;4.024;2023-06-10T02:46:12;8.65;;;7.32;;
52274;SDS011;38228;50.940;4.024;2023-06-10T02:48:41;10.13;;;7.20;;
52274;SDS011;38228;50.940;4.024;2023-06-10T02:51:10;13.27;;;7.80;;
52274;SDS011;38228;50.940;4.024;2023-06-10T02:53:37;11.15;;;7.05;;
52274;SDS011;38228;50.940;4.024;2023-06-10T02:56:02;12.82;;;8.10;;
52274;SDS011;38228;50.940;4.024;2023-06-10T02:58:28;9.85;;;7.75;;
52274;SDS011;38228;50.940;4.024;2023-06-10T03:00:54;11.35;;;7.60;;
52274;SDS011;38228;50.940;4.024;2023-06-10T03:03:20;9.48;;;8.05;;
52274;SDS011;38228;50.940;4.024;2023-06-10T03:05:47;10.15;;;7.70;;
52274;SDS011;38228;50.940;4.024;2023-06-10T03:08:13;9.20;;;8.07;;
52274;SDS011;38228;50.940;4.024;2023-06-10T03:10:39;10.48;;;7.88;;
52274;SDS011;38228;50.940;4.024;2023-06-10T03:13:05;9.52;;;8.55;;
52274;SDS011;38228;50.940;4.024;2023-06-10T03:15:30;11.10;;;7.78;;
52274;SDS011;38228;50.940;4.024;2023-06-10T03:17:58;9.63;;;8.02;;
52274;SDS011;38228;50.940;4.024;2023-06-10T03:20:27;11.65;;;8.45;;
52274;SDS011;38228;50.940;4.024;2023-06-10T03:22:53;12.45;;;8.05;;
52274;SDS011;38228;50.940;4.024;2023-06-10T03:25:19;15.25;;;7.88;;
52274;SDS011;38228;50.940;4.024;2023-06-10T03:27:45;11.48;;;8.23;;
52274;SDS011;38228;50.940;4.024;2023-06-10T03:30:12;12.82;;;8.10;;
52274;SDS011;38228;50.940;4.024;2023-06-10T03:32:38;12.48;;;8.60;;
52274;SDS011;38228;50.940;4.024;2023-06-10T03:35:04;12.32;;;8.40;;
52274;SDS011;38228;50.940;4.024;2023-06-10T03:37:31;11.55;;;8.85;;
52274;SDS011;38228;50.940;4.024;2023-06-10T03:39:57;12.40;;;8.57;;
52274;SDS011;38228;50.940;4.024;2023-06-10T03:42:23;12.90;;;8.52;;
52274;SDS011;38228;50.940;4.024;2023-06-10T03:44:48;12.68;;;8.57;;
52274;SDS011;38228;50.940;4.024;2023-06-10T03:47:14;9.70;;;8.57;;
52274;SDS011;38228;50.940;4.024;2023-06-10T03:49:41;13.23;;;8.85;;
52274;SDS011;38228;50.940;4.024;2023-06-10T03:52:06;10.70;;;8.63;;
52274;SDS011;38228;50.940;4.024;2023-06-10T03:54:32;10.77;;;9.05;;
52274;SDS011;38228;50.940;4.024;2023-06-10T03:57:00;9.70;;;8.70;;
52274;SDS011;38228;50.940;4.024;2023-06-10T03:59:25;12.57;;;8.68;;
52274;SDS011;38228;50.940;4.024;2023-06-10T04:01:51;11.95;;;8.30;;
52274;SDS011;38228;50.940;4.024;2023-06-10T04:04:17;12.90;;;9.00;;
52274;SDS011;38228;50.940;4.024;2023-06-10T04:06:43;11.57;;;8.95;;
52274;SDS011;38228;50.940;4.024;2023-06-10T04:09:09;9.05;;;8.00;;
52274;SDS011;38228;50.940;4.024;2023-06-10T04:11:35;11.35;;;7.97;;
52274;SDS011;38228;50.940;4.024;2023-06-10T04:14:02;15.18;;;9.57;;
52274;SDS011;38228;50.940;4.024;2023-06-10T04:16:28;10.70;;;8.30;;
52274;SDS011;38228;50.940;4.024;2023-06-10T04:18:53;13.70;;;9.00;;
52274;SDS011;38228;50.940;4.024;2023-06-10T04:21:20;11.13;;;9.43;;
52274;SDS011;38228;50.940;4.024;2023-06-10T04:23:46;12.75;;;9.43;;
52274;SDS011;38228;50.940;4.024;2023-06-10T04:26:12;15.63;;;9.05;;
52274;SDS011;38228;50.940;4.024;2023-06-10T04:28:38;12.38;;;9.30;;
52274;SDS011;38228;50.940;4.024;2023-06-10T04:31:04;13.57;;;9.45;;
52274;SDS011;38228;50.940;4.024;2023-06-10T04:33:30;13.25;;;9.10;;
52274;SDS011;38228;50.940;4.024;2023-06-10T04:35:56;11.73;;;9.20;;
52274;SDS011;38228;50.940;4.024;2023-06-10T04:38:22;16.25;;;9.13;;
52274;SDS011;38228;50.940;4.024;2023-06-10T04:40:48;15.00;;;9.43;;
52274;SDS011;38228;50.940;4.024;2023-06-10T04:43:14;11.85;;;9.40;;
52274;SDS011;38228;50.940;4.024;2023-06-10T04:45:39;11.50;;;8.93;;
52274;SDS011;38228;50.940;4.024;2023-06-10T04:48:09;13.32;;;9.23;;
52274;SDS011;38228;50.940;4.024;2023-06-10T04:50:35;12.38;;;9.13;;
52274;SDS011;38228;50.940;4.024;2023-06-10T04:53:01;12.35;;;8.70;;
52274;SDS011;38228;50.940;4.024;2023-06-10T04:55:27;13.70;;;8.77;;
52274;SDS011;38228;50.940;4.024;2023-06-10T04:57:53;13.88;;;9.30;;
52274;SDS011;38228;50.940;4.024;2023-06-10T05:00:19;13.05;;;9.50;;
52274;SDS011;38228;50.940;4.024;2023-06-10T05:02:45;13.80;;;9.13;;
52274;SDS011;38228;50.940;4.024;2023-06-10T05:05:14;12.23;;;9.65;;
52274;SDS011;38228;50.940;4.024;2023-06-10T05:07:41;11.85;;;9.48;;
52274;SDS011;38228;50.940;4.024;2023-06-10T05:10:07;11.15;;;9.52;;
52274;SDS011;38228;50.940;4.024;2023-06-10T05:12:33;13.00;;;9.68;;
52274;SDS011;38228;50.940;4.024;2023-06-10T05:14:59;11.77;;;9.80;;
52274;SDS011;38228;50.940;4.024;2023-06-10T05:17:25;13.63;;;9.48;;
52274;SDS011;38228;50.940;4.024;2023-06-10T05:19:51;12.88;;;9.63;;
52274;SDS011;38228;50.940;4.024;2023-06-10T05:22:16;14.85;;;9.25;;
52274;SDS011;38228;50.940;4.024;2023-06-10T05:24:43;12.05;;;10.13;;
52274;SDS011;38228;50.940;4.024;2023-06-10T05:27:09;11.45;;;9.35;;
52274;SDS011;38228;50.940;4.024;2023-06-10T05:29:35;11.48;;;9.77;;
52274;SDS011;38228;50.940;4.024;2023-06-10T05:32:01;12.65;;;9.38;;
52274;SDS011;38228;50.940;4.024;2023-06-10T05:34:31;10.05;;;9.00;;
52274;SDS011;38228;50.940;4.024;2023-06-10T05:36:57;13.77;;;9.68;;
52274;SDS011;38228;50.940;4.024;2023-06-10T05:39:23;11.73;;;9.43;;
52274;SDS011;38228;50.940;4.024;2023-06-10T05:41:48;14.43;;;9.68;;
52274;SDS011;38228;50.940;4.024;2023-06-10T05:44:14;10.63;;;9.07;;
52274;SDS011;38228;50.940;4.024;2023-06-10T05:46:40;13.52;;;9.23;;
52274;SDS011;38228;50.940;4.024;2023-06-10T05:49:06;13.55;;;9.90;;
52274;SDS011;38228;50.940;4.024;2023-06-10T05:51:31;14.68;;;9.90;;
52274;SDS011;38228;50.940;4.024;2023-06-10T05:53:57;12.18;;;9.80;;
52274;SDS011;38228;50.940;4.024;2023-06-10T05:56:23;12.15;;;9.98;;
52274;SDS011;38228;50.940;4.024;2023-06-10T05:58:49;11.40;;;9.70;;
52274;SDS011;38228;50.940;4.024;2023-06-10T06:01:14;13.02;;;9.43;;
52274;SDS011;38228;50.940;4.024;2023-06-10T06:03:40;12.55;;;9.73;;
52274;SDS011;38228;50.940;4.024;2023-06-10T06:06:06;12.88;;;9.10;;
52274;SDS011;38228;50.940;4.024;2023-06-10T06:08:31;14.10;;;9.57;;
52274;SDS011;38228;50.940;4.024;2023-06-10T06:10:57;15.35;;;9.70;;
52274;SDS011;38228;50.940;4.024;2023-06-10T06:13:23;10.63;;;9.30;;
52274;SDS011;38228;50.940;4.024;2023-06-10T06:15:52;14.20;;;9.57;;
52274;SDS011;38228;50.940;4.024;2023-06-10T06:18:17;13.50;;;9.05;;
52274;SDS011;38228;50.940;4.024;2023-06-10T06:20:43;13.77;;;9.45;;
52274;SDS011;38228;50.940;4.024;2023-06-10T06:23:09;17.98;;;10.07;;
52274;SDS011;38228;50.940;4.024;2023-06-10T06:25:36;11.43;;;9.32;;
52274;SDS011;38228;50.940;4.024;2023-06-10T06:28:04;16.40;;;9.07;;
52274;SDS011;38228;50.940;4.024;2023-06-10T06:30:31;13.05;;;9.10;;
52274;SDS011;38228;50.940;4.024;2023-06-10T06:32:57;13.38;;;8.85;;
52274;SDS011;38228;50.940;4.024;2023-06-10T06:35:22;15.77;;;9.35;;
52274;SDS011;38228;50.940;4.024;2023-06-10T06:37:48;15.45;;;9.20;;
52274;SDS011;38228;50.940;4.024;2023-06-10T06:40:14;14.05;;;9.35;;
52274;SDS011;38228;50.940;4.024;2023-06-10T06:42:39;15.68;;;8.98;;
52274;SDS011;38228;50.940;4.024;2023-06-10T06:45:05;13.65;;;9.10;;
52274;SDS011;38228;50.940;4.024;2023-06-10T06:47:31;14.00;;;9.45;;
52274;SDS011;38228;50.940;4.024;2023-06-10T06:49:57;9.77;;;8.68;;
52274;SDS011;38228;50.940;4.024;2023-06-10T06:52:23;13.77;;;9.57;;
52274;SDS011;38228;50.940;4.024;2023-06-10T06:54:48;11.82;;;9.13;;
52274;SDS011;38228;50.940;4.024;2023-06-10T06:57:14;11.77;;;9.63;;
52274;SDS011;38228;50.940;4.024;2023-06-10T06:59:40;11.52;;;8.80;;
52274;SDS011;38228;50.940;4.024;2023-06-10T07:02:06;12.73;;;8.88;;
52274;SDS011;38228;50.940;4.024;2023-06-10T07:04:31;15.13;;;8.63;;
52274;SDS011;38228;50.940;4.024;2023-06-10T07:06:57;13.45;;;9.10;;
52274;SDS011;38228;50.940;4.024;2023-06-10T07:09:23;11.15;;;8.85;;
52274;SDS011;38228;50.940;4.024;2023-06-10T07:11:49;13.90;;;8.40;;
52274;SDS011;38228;50.940;4.024;2023-06-10T07:14:14;10.88;;;8.40;;
52274;SDS011;38228;50.940;4.024;2023-06-10T07:16:40;9.55;;;7.85;;
52274;SDS011;38228;50.940;4.024;2023-06-10T07:19:06;9.85;;;8.27;;
52274;SDS011;38228;50.940;4.024;2023-06-10T07:21:31;11.13;;;8.00;;
52274;SDS011;38228;50.940;4.024;2023-06-10T07:23:59;13.35;;;8.65;;
52274;SDS011;38228;50.940;4.024;2023-06-10T07:26:25;11.98;;;8.00;;
52274;SDS011;38228;50.940;4.024;2023-06-10T07:28:51;11.13;;;8.02;;
52274;SDS011;38228;50.940;4.024;2023-06-10T07:31:17;14.35;;;8.80;;
52274;SDS011;38228;50.940;4.024;2023-06-10T07:33:42;12.43;;;8.50;;
52274;SDS011;38228;50.940;4.024;2023-06-10T07:36:08;11.82;;;8.25;;
52274;SDS011;38228;50.940;4.024;2023-06-10T07:38:34;13.38;;;8.18;;
52274;SDS011;38228;50.940;4.024;2023-06-10T07:41:00;10.23;;;7.90;;
52274;SDS011;38228;50.940;4.024;2023-06-10T07:43:26;12.65;;;7.78;;
52274;SDS011;38228;50.940;4.024;2023-06-10T07:45:52;12.35;;;7.80;;
52274;SDS011;38228;50.940;4.024;2023-06-10T07:48:17;10.25;;;8.00;;
52274;SDS011;38228;50.940;4.024;2023-06-10T07:50:43;9.52;;;8.13;;
52274;SDS011;38228;50.940;4.024;2023-06-10T07:53:09;11.25;;;7.80;;
52274;SDS011;38228;50.940;4.024;2023-06-10T07:55:35;9.18;;;7.30;;
52274;SDS011;38228;50.940;4.024;2023-06-10T07:58:01;8.80;;;7.68;;
52274;SDS011;38228;50.940;4.024;2023-06-10T08:00:27;11.50;;;7.38;;
52274;SDS011;38228;50.940;4.024;2023-06-10T08:02:52;10.43;;;7.45;;
52274;SDS011;38228;50.940;4.024;2023-06-10T08:05:18;11.23;;;7.65;;
52274;SDS011;38228;50.940;4.024;2023-06-10T08:07:44;12.48;;;7.53;;
52274;SDS011;38228;50.940;4.024;2023-06-10T08:10:10;10.07;;;7.25;;
52274;SDS011;38228;50.940;4.024;2023-06-10T08:12:35;10.68;;;6.97;;
52274;SDS011;38228;50.940;4.024;2023-06-10T08:15:02;8.45;;;7.32;;
52274;SDS011;38228;50.940;4.024;2023-06-10T08:17:29;9.80;;;6.63;;
52274;SDS011;38228;50.940;4.024;2023-06-10T08:19:55;9.88;;;7.07;;
52274;SDS011;38228;50.940;4.024;2023-06-10T08:22:21;8.77;;;6.78;;
52274;SDS011;38228;50.940;4.024;2023-06-10T08:24:47;8.25;;;6.75;;
52274;SDS011;38228;50.940;4.024;2023-06-10T08:27:13;12.20;;;7.30;;
52274;SDS011;38228;50.940;4.024;2023-06-10T08:29:39;11.27;;;7.10;;
52274;SDS011;38228;50.940;4.024;2023-06-10T08:32:05;10.43;;;6.43;;
52274;SDS011;38228;50.940;4.024;2023-06-10T08:34:33;7.90;;;6.70;;
52274;SDS011;38228;50.940;4.024;2023-06-10T08:37:00;9.27;;;6.45;;
52274;SDS011;38228;50.940;4.024;2023-06-10T08:39:26;9.75;;;6.80;;
52274;SDS011;38228;50.940;4.024;2023-06-10T08:44:39;13.30;;;6.40;;
52274;SDS011;38228;50.940;4.024;2023-06-10T08:47:06;9.82;;;6.68;;
52274;SDS011;38228;50.940;4.024;2023-06-10T08:49:49;6.70;;;5.50;;
52274;SDS011;38228;50.940;4.024;2023-06-10T08:52:17;10.00;;;6.57;;
52274;SDS011;38228;50.940;4.024;2023-06-10T08:57:16;7.38;;;6.07;;
52274;SDS011;38228;50.940;4.024;2023-06-10T08:59:45;9.35;;;6.00;;
52274;SDS011;38228;50.940;4.024;2023-06-10T09:02:11;7.97;;;5.45;;
52274;SDS011;38228;50.940;4.024;2023-06-10T09:04:38;7.82;;;5.65;;
52274;SDS011;38228;50.940;4.024;2023-06-10T09:07:04;8.27;;;5.95;;
52274;SDS011;38228;50.940;4.024;2023-06-10T09:09:31;8.45;;;6.03;;
52274;SDS011;38228;50.940;4.024;2023-06-10T09:11:59;8.35;;;5.97;;
52274;SDS011;38228;50.940;4.024;2023-06-10T09:14:25;6.70;;;5.78;;
52274;SDS011;38228;50.940;4.024;2023-06-10T09:16:50;7.60;;;6.05;;
52274;SDS011;38228;50.940;4.024;2023-06-10T09:19:21;7.22;;;6.00;;
52274;SDS011;38228;50.940;4.024;2023-06-10T09:21:48;9.27;;;5.95;;
52274;SDS011;38228;50.940;4.024;2023-06-10T09:24:14;7.90;;;5.78;;
52274;SDS011;38228;50.940;4.024;2023-06-10T09:26:41;9.77;;;5.72;;
52274;SDS011;38228;50.940;4.024;2023-06-10T09:29:08;7.88;;;5.40;;
52274;SDS011;38228;50.940;4.024;2023-06-10T09:31:37;6.00;;;5.07;;
52274;SDS011;38228;50.940;4.024;2023-06-10T09:34:07;11.90;;;6.00;;
52274;SDS011;38228;50.940;4.024;2023-06-10T09:36:34;7.88;;;5.85;;
52274;SDS011;38228;50.940;4.024;2023-06-10T09:39:01;7.38;;;5.40;;
52274;SDS011;38228;50.940;4.024;2023-06-10T09:41:34;9.50;;;5.78;;
52274;SDS011;38228;50.940;4.024;2023-06-10T09:44:00;7.82;;;5.80;;
52274;SDS011;38228;50.940;4.024;2023-06-10T09:46:30;8.18;;;5.68;;
52274;SDS011;38228;50.940;4.024;2023-06-10T09:48:59;6.15;;;5.40;;
52274;SDS011;38228;50.940;4.024;2023-06-10T09:51:25;7.00;;;5.38;;
52274;SDS011;38228;50.940;4.024;2023-06-10T09:53:51;6.28;;;5.32;;
52274;SDS011;38228;50.940;4.024;2023-06-10T09:56:18;5.63;;;5.03;;
52274;SDS011;38228;50.940;4.024;2023-06-10T09:58:44;12.18;;;5.88;;
52274;SDS011;38228;50.940;4.024;2023-06-10T10:01:12;10.45;;;5.15;;
52274;SDS011;38228;50.940;4.024;2023-06-10T10:03:43;10.45;;;5.50;;
52274;SDS011;38228;50.940;4.024;2023-06-10T10:06:12;8.43;;;5.05;;
52274;SDS011;38228;50.940;4.024;2023-06-10T10:08:39;6.13;;;5.03;;
52274;SDS011;38228;50.940;4.024;2023-06-10T10:11:05;8.50;;;5.53;;
52274;SDS011;38228;50.940;4.024;2023-06-10T10:13:34;6.65;;;4.75;;
52274;SDS011;38228;50.940;4.024;2023-06-10T10:16:09;8.90;;;5.53;;
52274;SDS011;38228;50.940;4.024;2023-06-10T10:18:41;9.65;;;5.22;;
52274;SDS011;38228;50.940;4.024;2023-06-10T10:21:11;7.32;;;5.25;;
52274;SDS011;38228;50.940;4.024;2023-06-10T10:23:40;7.68;;;5.65;;
52274;SDS011;38228;50.940;4.024;2023-06-10T10:26:12;8.40;;;5.00;;
52274;SDS011;38228;50.940;4.024;2023-06-10T10:28:45;7.47;;;5.15;;
52274;SDS011;38228;50.940;4.024;2023-06-10T10:31:27;8.57;;;5.07;;
52274;SDS011;38228;50.940;4.024;2023-06-10T10:33:58;5.10;;;4.50;;
52274;SDS011;38228;50.940;4.024;2023-06-10T10:36:25;5.40;;;4.90;;
52274;SDS011;38228;50.940;4.024;2023-06-10T10:38:51;5.38;;;4.88;;
52274;SDS011;38228;50.940;4.024;2023-06-10T10:41:18;7.13;;;4.53;;
52274;SDS011;38228;50.940;4.024;2023-06-10T10:43:44;5.47;;;4.43;;
52274;SDS011;38228;50.940;4.024;2023-06-10T10:46:11;7.30;;;4.72;;
52274;SDS011;38228;50.940;4.024;2023-06-10T10:48:39;6.10;;;4.60;;
52274;SDS011;38228;50.940;4.024;2023-06-10T10:51:09;6.78;;;4.90;;
52274;SDS011;38228;50.940;4.024;2023-06-10T10:53:38;6.35;;;4.60;;
52274;SDS011;38228;50.940;4.024;2023-06-10T10:56:05;6.28;;;4.60;;
52274;SDS011;38228;50.940;4.024;2023-06-10T10:58:33;15.27;;;5.40;;
52274;SDS011;38228;50.940;4.024;2023-06-10T11:00:58;7.40;;;4.50;;
52274;SDS011;38228;50.940;4.024;2023-06-10T11:03:27;6.93;;;4.28;;
52274;SDS011;38228;50.940;4.024;2023-06-10T11:05:57;5.53;;;4.55;;
52274;SDS011;38228;50.940;4.024;2023-06-10T11:10:58;5.35;;;4.32;;
52274;SDS011;38228;50.940;4.024;2023-06-10T11:13:25;9.38;;;4.30;;
52274;SDS011;38228;50.940;4.024;2023-06-10T11:15:51;10.32;;;4.38;;
52274;SDS011;38228;50.940;4.024;2023-06-10T11:18:23;5.10;;;4.40;;
52274;SDS011;38228;50.940;4.024;2023-06-10T11:31:21;6.47;;;4.28;;
52274;SDS011;38228;50.940;4.024;2023-06-10T11:33:47;6.50;;;4.22;;
52274;SDS011;38228;50.940;4.024;2023-06-10T11:36:13;6.68;;;4.85;;
52274;SDS011;38228;50.940;4.024;2023-06-10T11:38:40;5.45;;;4.88;;
52274;SDS011;38228;50.940;4.024;2023-06-10T11:41:07;5.82;;;5.22;;
52274;SDS011;38228;50.940;4.024;2023-06-10T11:43:33;5.78;;;4.30;;
52274;SDS011;38228;50.940;4.024;2023-06-10T11:45:59;8.68;;;4.65;;
52274;SDS011;38228;50.940;4.024;2023-06-10T11:48:25;7.65;;;4.40;;
52274;SDS011;38228;50.940;4.024;2023-06-10T11:50:53;6.22;;;4.43;;
52274;SDS011;38228;50.940;4.024;2023-06-10T11:53:19;10.55;;;4.30;;
52274;SDS011;38228;50.940;4.024;2023-06-10T11:55:45;7.50;;;4.78;;
52274;SDS011;38228;50.940;4.024;2023-06-10T11:58:19;6.22;;;4.65;;
52274;SDS011;38228;50.940;4.024;2023-06-10T12:00:49;6.57;;;4.40;;
52274;SDS011;38228;50.940;4.024;2023-06-10T12:03:18;5.55;;;4.47;;
52274;SDS011;38228;50.940;4.024;2023-06-10T12:06:04;6.38;;;4.65;;
52274;SDS011;38228;50.940;4.024;2023-06-10T12:08:31;6.38;;;5.07;;
52274;SDS011;38228;50.940;4.024;2023-06-10T12:10:58;6.97;;;4.38;;
52274;SDS011;38228;50.940;4.024;2023-06-10T12:13:28;7.57;;;4.40;;
52274;SDS011;38228;50.940;4.024;2023-06-10T12:15:53;9.23;;;4.72;;
52274;SDS011;38228;50.940;4.024;2023-06-10T12:18:20;8.18;;;4.63;;
52274;SDS011;38228;50.940;4.024;2023-06-10T12:20:47;7.05;;;4.90;;
52274;SDS011;38228;50.940;4.024;2023-06-10T12:23:14;4.75;;;4.25;;
52274;SDS011;38228;50.940;4.024;2023-06-10T12:25:54;5.03;;;4.60;;
52274;SDS011;38228;50.940;4.024;2023-06-10T12:28:21;5.80;;;4.60;;
52274;SDS011;38228;50.940;4.024;2023-06-10T12:30:51;7.90;;;4.63;;
52274;SDS011;38228;50.940;4.024;2023-06-10T12:33:30;6.97;;;4.70;;
52274;SDS011;38228;50.940;4.024;2023-06-10T12:35:56;15.70;;;4.90;;
52274;SDS011;38228;50.940;4.024;2023-06-10T12:38:22;8.77;;;4.90;;
52274;SDS011;38228;50.940;4.024;2023-06-10T12:40:52;6.43;;;4.90;;
52274;SDS011;38228;50.940;4.024;2023-06-10T12:43:27;5.88;;;4.28;;
52274;SDS011;38228;50.940;4.024;2023-06-10T12:45:56;5.25;;;4.75;;
52274;SDS011;38228;50.940;4.024;2023-06-10T12:48:37;7.28;;;4.57;;
52274;SDS011;38228;50.940;4.024;2023-06-10T12:51:15;8.15;;;4.68;;
52274;SDS011;38228;50.940;4.024;2023-06-10T12:53:41;4.60;;;4.20;;
52274;SDS011;38228;50.940;4.024;2023-06-10T12:56:08;8.13;;;4.78;;
52274;SDS011;38228;50.940;4.024;2023-06-10T12:58:34;4.75;;;4.13;;
52274;SDS011;38228;50.940;4.024;2023-06-10T13:00:59;7.25;;;4.38;;
52274;SDS011;38228;50.940;4.024;2023-06-10T13:03:25;6.45;;;4.85;;
52274;SDS011;38228;50.940;4.024;2023-06-10T13:05:51;6.47;;;4.90;;
52274;SDS011;38228;50.940;4.024;2023-06-10T13:08:17;5.95;;;4.90;;
52274;SDS011;38228;50.940;4.024;2023-06-10T13:10:42;6.50;;;4.97;;
52274;SDS011;38228;50.940;4.024;2023-06-10T13:13:08;8.98;;;5.53;;
52274;SDS011;38228;50.940;4.024;2023-06-10T13:15:34;37.65;;;6.88;;
52274;SDS011;38228;50.940;4.024;2023-06-10T13:18:03;6.68;;;4.85;;
52274;SDS011;38228;50.940;4.024;2023-06-10T13:20:30;7.60;;;4.90;;
52274;SDS011;38228;50.940;4.024;2023-06-10T13:22:56;7.43;;;4.93;;
52274;SDS011;38228;50.940;4.024;2023-06-10T13:25:21;8.77;;;5.00;;
52274;SDS011;38228;50.940;4.024;2023-06-10T13:27:48;9.98;;;5.35;;
52274;SDS011;38228;50.940;4.024;2023-06-10T13:30:14;5.97;;;4.85;;
52274;SDS011;38228;50.940;4.024;2023-06-10T13:32:39;7.55;;;5.03;;
52274;SDS011;38228;50.940;4.024;2023-06-10T13:35:05;6.03;;;4.90;;
52274;SDS011;38228;50.940;4.024;2023-06-10T13:37:32;6.00;;;5.10;;
52274;SDS011;38228;50.940;4.024;2023-06-10T13:39:58;7.88;;;4.90;;
52274;SDS011;38228;50.940;4.024;2023-06-10T13:42:24;10.95;;;5.30;;
52274;SDS011;38228;50.940;4.024;2023-06-10T13:44:51;8.63;;;5.38;;
52274;SDS011;38228;50.940;4.024;2023-06-10T13:47:17;7.78;;;4.72;;
52274;SDS011;38228;50.940;4.024;2023-06-10T13:49:42;4.82;;;4.43;;
52274;SDS011;38228;50.940;4.024;2023-06-10T13:52:08;7.25;;;4.55;;
52274;SDS011;38228;50.940;4.024;2023-06-10T13:54:34;5.10;;;4.65;;
52274;SDS011;38228;50.940;4.024;2023-06-10T13:57:02;7.38;;;4.70;;
52274;SDS011;38228;50.940;4.024;2023-06-10T13:59:28;6.38;;;5.00;;
52274;SDS011;38228;50.940;4.024;2023-06-10T14:01:54;6.90;;;4.88;;
52274;SDS011;38228;50.940;4.024;2023-06-10T14:04:21;9.75;;;4.95;;
52274;SDS011;38228;50.940;4.024;2023-06-10T14:06:47;8.40;;;4.97;;
52274;SDS011;38228;50.940;4.024;2023-06-10T14:09:13;7.88;;;5.00;;
52274;SDS011;38228;50.940;4.024;2023-06-10T14:11:39;6.35;;;4.85;;
52274;SDS011;38228;50.940;4.024;2023-06-10T14:14:04;7.68;;;4.90;;
52274;SDS011;38228;50.940;4.024;2023-06-10T14:16:30;5.90;;;4.50;;
52274;SDS011;38228;50.940;4.024;2023-06-10T14:18:56;6.47;;;4.72;;
52274;SDS011;38228;50.940;4.024;2023-06-10T14:21:21;7.10;;;4.38;;
52274;SDS011;38228;50.940;4.024;2023-06-10T14:23:47;7.03;;;4.60;;
52274;SDS011;38228;50.940;4.024;2023-06-10T14:26:14;4.95;;;4.55;;
52274;SDS011;38228;50.940;4.024;2023-06-10T14:28:39;7.80;;;5.32;;
52274;SDS011;38228;50.940;4.024;2023-06-10T14:31:05;6.72;;;5.43;;
52274;SDS011;38228;50.940;4.024;2023-06-10T14:33:32;6.18;;;5.22;;
52274;SDS011;38228;50.940;4.024;2023-06-10T14:35:58;12.15;;;6.45;;
52274;SDS011;38228;50.940;4.024;2023-06-10T14:38:24;9.30;;;4.82;;
52274;SDS011;38228;50.940;4.024;2023-06-10T14:40:49;7.32;;;4.65;;
52274;SDS011;38228;50.940;4.024;2023-06-10T14:43:15;6.05;;;4.30;;
52274;SDS011;38228;50.940;4.024;2023-06-10T14:45:41;7.47;;;4.65;;
52274;SDS011;38228;50.940;4.024;2023-06-10T14:48:07;8.25;;;4.85;;
52274;SDS011;38228;50.940;4.024;2023-06-10T14:50:36;5.15;;;4.55;;
52274;SDS011;38228;50.940;4.024;2023-06-10T14:53:02;7.03;;;5.00;;
52274;SDS011;38228;50.940;4.024;2023-06-10T14:55:28;7.53;;;5.00;;
52274;SDS011;38228;50.940;4.024;2023-06-10T14:57:53;8.57;;;5.10;;
52274;SDS011;38228;50.940;4.024;2023-06-10T15:00:21;6.10;;;4.88;;
52274;SDS011;38228;50.940;4.024;2023-06-10T15:02:48;7.20;;;4.70;;